Forside
METAR-TAF:

METAR-TAF

Lufthavne :

Malmö Airport

Malmø, Sverige

Breddekreds: 55-33N, længdekreds: 013-22E, højde: 106 m

Aktuelle vejr

Denne rapport blev lavet for 17 minutter siden, kl. 10:20 UTC
Vind 10 kt fra sydøst
Temperatur 7°C
Fugtighed 100%
Tryk 1007 hPa
Sigt: 0450 m
Overskyet i en højde af 200 ft
let regn,

METAR: ESMS 021020Z 13010KT 0450 R17/1200N R35/1000U -RA OVC002 07/07 Q1007

Tid: 11:37 (10:37 UTC)

Vejrudsigter

Denne rapport blev lavet for 39 minutter siden, kl. 09:58 UTC
Foreløbig gælder fra 02 på 09 UTC til 03 på 09 UTC
Vind 6 kt fra østsydøst
Sigt: 0300 m
Brudte skyer i en højde af 100 ft
tåge
Midlertidig
fra 02 på 09 UTC til 02 på 18 UTC
Sigt: 2000 m
Brudte skyer i en højde af 200 ft
regn, finregn, dis
Sandsynlighed 40%
fra 02 på 18 UTC til 03 på 09 UTC
Sigt: 3000 m
Spredte skyer i en højde af 800 ft
dis,

TAF: ESMS 020958Z 0209/0309 12006KT 0300 FG BKN001 TEMPO 0209/0218 2000 RADZ BR BKN002 PROB40 0218/0309 3000 BR SCT008

Vejrobservationer og prognoser fra mere end 4000 lufthavne (METAR og TAF).

De gule og røde prikker repræsenterer de meteorologiske stationer.

Flyt musen over at se navnet på stationen.

Så klik over at se vejr observationer og prognoser.

At skifte det kort: Klik på de grønne knapper med et sort kors for at zoome ind; på den grønne knap med en bindestreg for at zoome ud; eller på de grønne pile for tilstødende kort.


METAR-TAF: